createdAt,value
2018-05-26T00:01:09.036Z,88.70
2018-05-26T00:03:37.429Z,88.10
2018-05-26T00:06:05.022Z,88.00
2018-05-26T00:08:32.652Z,89.90
2018-05-26T00:11:00.276Z,90.20
2018-05-26T00:13:27.907Z,90.50
2018-05-26T00:15:55.490Z,90.80
2018-05-26T00:18:23.121Z,90.70
2018-05-26T00:20:50.749Z,90.40
2018-05-26T00:23:19.101Z,90.60
2018-05-26T00:25:46.724Z,90.60
2018-05-26T00:28:14.313Z,90.30
2018-05-26T00:30:41.935Z,90.40
2018-05-26T00:33:09.565Z,90.10
2018-05-26T00:35:37.960Z,89.20
2018-05-26T00:38:05.544Z,89.10
2018-05-26T00:40:33.169Z,88.70
2018-05-26T00:43:01.565Z,88.20
2018-05-26T00:45:29.204Z,88.20
2018-05-26T00:47:57.553Z,88.30
2018-05-26T00:50:25.180Z,88.30
2018-05-26T00:52:52.760Z,87.90
2018-05-26T00:55:20.386Z,87.90
2018-05-26T00:57:48.023Z,88.10
2018-05-26T01:00:16.373Z,87.80
2018-05-26T01:02:43.994Z,87.80
2018-05-26T01:05:11.576Z,87.20
2018-05-26T01:07:39.200Z,87.00
2018-05-26T01:10:06.786Z,87.50
2018-05-26T01:12:34.369Z,86.70
2018-05-26T01:15:02.006Z,87.20
2018-05-26T01:17:29.602Z,87.40
2018-05-26T01:19:57.234Z,86.70
2018-05-26T01:22:24.863Z,86.70
2018-05-26T01:24:52.446Z,87.20
2018-05-26T01:27:20.069Z,86.50
2018-05-26T01:29:48.468Z,86.40
2018-05-26T01:32:16.053Z,86.40
2018-05-26T01:34:43.676Z,86.80
2018-05-26T01:37:11.261Z,87.00
2018-05-26T01:39:38.848Z,86.80
2018-05-26T01:42:06.472Z,87.00
2018-05-26T01:44:34.057Z,86.70
2018-05-26T01:47:01.637Z,86.50
2018-05-26T01:49:29.253Z,86.70
2018-05-26T01:51:56.836Z,86.10
2018-05-26T01:54:24.473Z,85.20
2018-05-26T01:56:52.057Z,85.10
2018-05-26T01:59:19.716Z,85.90
2018-05-26T02:01:47.341Z,86.40
2018-05-26T02:04:14.929Z,86.40
2018-05-26T02:06:42.551Z,86.00
2018-05-26T02:09:10.932Z,85.20
2018-05-26T02:11:39.284Z,85.80
2018-05-26T02:14:06.935Z,85.80
2018-05-26T02:16:34.523Z,85.40
2018-05-26T02:19:02.951Z,84.90
2018-05-26T02:21:31.349Z,84.70
2018-05-26T02:23:58.928Z,85.00
2018-05-26T02:26:26.556Z,84.90
2018-05-26T02:28:54.173Z,84.10
2018-05-26T02:31:22.566Z,83.60
2018-05-26T02:33:50.167Z,83.50
2018-05-26T02:36:17.752Z,84.40
2018-05-26T02:38:45.377Z,83.80
2018-05-26T02:41:12.972Z,83.40
2018-05-26T02:43:40.597Z,83.70
2018-05-26T02:46:08.221Z,83.40
2018-05-26T02:48:36.605Z,82.10
2018-05-26T02:51:04.233Z,82.10
2018-05-26T02:53:31.817Z,82.00
2018-05-26T02:56:00.212Z,81.50
2018-05-26T02:58:27.800Z,81.50
2018-05-26T03:00:55.425Z,81.70
2018-05-26T03:03:23.055Z,81.90
2018-05-26T03:05:56.359Z,81.90
2018-05-26T03:08:29.727Z,83.00
2018-05-26T03:11:02.944Z,81.80
2018-05-26T03:13:37.037Z,81.60
2018-05-26T03:16:08.480Z,81.60
2018-05-26T03:18:36.068Z,81.50
2018-05-26T03:21:04.464Z,81.20
2018-05-26T03:23:32.809Z,81.40
2018-05-26T03:26:00.433Z,81.40
2018-05-26T03:28:28.055Z,81.50
2018-05-26T03:30:56.400Z,81.90
2018-05-26T03:33:24.040Z,81.80
2018-05-26T03:35:51.640Z,82.00
2018-05-26T03:38:19.225Z,81.90
2018-05-26T03:40:46.844Z,82.80
2018-05-26T03:43:14.460Z,81.80
2018-05-26T03:45:42.080Z,81.70
2018-05-26T03:48:09.665Z,81.60
2018-05-26T03:50:38.051Z,82.00
2018-05-26T03:53:05.635Z,82.00
2018-05-26T03:55:45.002Z,81.60
2018-05-26T03:58:24.348Z,81.40
2018-05-26T04:00:51.972Z,81.20
2018-05-26T04:03:19.564Z,81.60
2018-05-26T04:05:47.256Z,81.70
2018-05-26T04:08:14.841Z,81.40
2018-05-26T04:10:42.428Z,81.90
2018-05-26T04:13:10.056Z,82.20
2018-05-26T04:15:37.668Z,82.40
2018-05-26T04:18:06.055Z,82.90
2018-05-26T04:20:33.778Z,83.00
2018-05-26T04:23:01.401Z,82.80
2018-05-26T04:25:29.752Z,82.80
2018-05-26T04:27:58.164Z,83.30
2018-05-26T04:30:25.751Z,83.30
2018-05-26T04:32:53.332Z,83.10
2018-05-26T04:35:20.961Z,83.00
2018-05-26T04:37:48.570Z,82.80
2018-05-26T04:40:16.193Z,82.90
2018-05-26T04:42:43.781Z,83.10
2018-05-26T04:45:11.405Z,82.90
2018-05-26T04:47:39.037Z,82.80
2018-05-26T04:50:07.392Z,83.50
2018-05-26T04:52:36.524Z,83.50
2018-05-26T04:55:04.153Z,83.40
2018-05-26T04:57:33.276Z,83.70
2018-05-26T05:00:01.621Z,83.80
2018-05-26T05:02:30.020Z,83.80
2018-05-26T05:04:58.368Z,84.00
2018-05-26T05:07:25.984Z,83.90
2018-05-26T05:09:53.566Z,84.00
2018-05-26T05:12:21.192Z,83.80
2018-05-26T05:14:49.556Z,84.30
2018-05-26T05:17:17.948Z,84.20
2018-05-26T05:19:46.300Z,84.30
2018-05-26T05:22:13.924Z,84.30
2018-05-26T05:24:41.508Z,84.20
2018-05-26T05:27:09.147Z,84.20
2018-05-26T05:29:36.736Z,84.50
2018-05-26T05:32:05.904Z,85.00
2018-05-26T05:34:33.494Z,84.90
2018-05-26T05:37:02.641Z,85.30
2018-05-26T05:39:30.225Z,85.30
2018-05-26T05:41:57.812Z,85.50
2018-05-26T05:44:26.204Z,85.50
2018-05-26T05:46:53.832Z,85.60
2018-05-26T05:49:21.464Z,85.50
2018-05-26T05:51:49.093Z,86.00
2018-05-26T05:54:17.441Z,84.60
2018-05-26T05:56:45.068Z,84.50
2018-05-26T05:59:12.652Z,84.60
2018-05-26T06:01:40.281Z,84.80
2018-05-26T06:04:07.865Z,84.70
2018-05-26T06:06:35.500Z,84.30
2018-05-26T06:09:03.136Z,84.20
2018-05-26T06:11:31.524Z,84.20
2018-05-26T06:13:59.917Z,85.00
2018-05-26T06:16:27.544Z,85.00
2018-05-26T06:18:55.176Z,84.40
2018-05-26T06:21:22.789Z,83.50
2018-05-26T06:23:51.138Z,84.00
2018-05-26T06:26:18.849Z,84.00
2018-05-26T06:28:46.444Z,83.30
2018-05-26T06:31:14.061Z,84.10
2018-05-26T06:33:41.651Z,84.80
2018-05-26T06:36:09.277Z,84.70
2018-05-26T06:38:36.864Z,84.20
2018-05-26T06:41:04.492Z,83.70
2018-05-26T06:43:32.888Z,83.30
2018-05-26T06:46:00.513Z,83.10
2018-05-26T06:48:28.100Z,83.30
2018-05-26T06:50:55.731Z,84.60
2018-05-26T06:53:23.315Z,83.50
2018-05-26T06:55:50.933Z,82.50
2018-05-26T06:58:18.548Z,82.40
2018-05-26T07:00:46.178Z,82.40
2018-05-26T07:03:14.528Z,82.50
2018-05-26T07:05:42.148Z,82.40
2018-05-26T07:08:09.764Z,81.10
2018-05-26T07:10:37.390Z,81.50
2018-05-26T07:13:05.013Z,80.70
2018-05-26T07:15:33.364Z,80.10
2018-05-26T07:18:01.001Z,80.00
2018-05-26T07:20:28.643Z,79.40
2018-05-26T07:22:56.265Z,79.30
2018-05-26T07:25:24.655Z,78.10
2018-05-26T07:27:53.043Z,77.60
2018-05-26T07:30:21.428Z,78.40
2018-05-26T07:32:49.140Z,78.40
2018-05-26T07:35:16.728Z,78.40
2018-05-26T07:37:45.116Z,78.00
2018-05-26T07:40:13.464Z,76.70
2018-05-26T07:42:41.101Z,76.70
2018-05-26T07:45:08.688Z,77.00
2018-05-26T07:47:36.276Z,76.70
2018-05-26T07:50:04.699Z,79.50
2018-05-26T07:52:32.357Z,79.40
2018-05-26T07:54:59.945Z,78.30
2018-05-26T07:57:27.536Z,76.60
2018-05-26T07:59:55.932Z,76.20
2018-05-26T08:02:23.556Z,76.20
2018-05-26T08:04:51.173Z,76.50
2018-05-26T08:07:18.794Z,76.40
2018-05-26T08:09:47.144Z,76.40
2018-05-26T08:12:14.779Z,76.40
2018-05-26T08:14:42.364Z,77.80
2018-05-26T08:17:10.059Z,77.10
2018-05-26T08:19:37.612Z,76.60
2018-05-26T08:22:06.005Z,76.60
2018-05-26T08:24:33.638Z,76.50
2018-05-26T08:27:02.071Z,76.00
2018-05-26T08:29:29.709Z,76.00
2018-05-26T08:31:57.313Z,77.70
2018-05-26T08:34:25.041Z,75.60
2018-05-26T08:36:52.665Z,72.50
2018-05-26T08:39:20.316Z,72.20
2018-05-26T08:41:48.047Z,74.40
2018-05-26T08:44:15.658Z,73.10
2018-05-26T08:46:44.061Z,71.70
2018-05-26T08:49:11.660Z,71.70
2018-05-26T08:51:39.328Z,71.30
2018-05-26T08:54:07.029Z,70.90
2018-05-26T08:56:35.428Z,68.80
2018-05-26T08:59:03.016Z,68.80
2018-05-26T09:01:30.657Z,68.20
2018-05-26T09:03:58.243Z,68.50
2018-05-26T09:06:25.879Z,68.10
2018-05-26T09:08:54.250Z,69.20
2018-05-26T09:11:21.856Z,69.20
2018-05-26T09:13:49.513Z,69.00
2018-05-26T09:16:17.132Z,67.60
2018-05-26T09:18:44.789Z,68.20
2018-05-26T09:21:13.165Z,64.40
2018-05-26T09:23:40.792Z,64.30
2018-05-26T09:26:08.423Z,64.10
2018-05-26T09:28:36.052Z,60.70
2018-05-26T09:31:03.638Z,60.90
2018-05-26T09:33:31.261Z,62.80
2018-05-26T09:35:59.630Z,61.40
2018-05-26T09:38:28.028Z,59.70
2018-05-26T09:40:55.658Z,59.70
2018-05-26T09:43:23.281Z,60.00
2018-05-26T09:45:50.925Z,61.80
2018-05-26T09:48:18.512Z,59.50
2018-05-26T09:50:46.096Z,56.80
2018-05-26T09:53:14.516Z,57.90
2018-05-26T09:55:42.097Z,57.80
2018-05-26T09:58:09.767Z,58.50
2018-05-26T10:00:37.349Z,57.90
2018-05-26T10:03:04.977Z,59.80
2018-05-26T10:05:32.562Z,57.10
2018-05-26T10:08:00.220Z,58.00
2018-05-26T10:10:27.853Z,59.00
2018-05-26T10:12:55.467Z,58.10
2018-05-26T10:15:23.927Z,57.60
2018-05-26T10:17:51.532Z,57.50
2018-05-26T10:20:19.880Z,57.20
2018-05-26T10:22:47.505Z,57.20
2018-05-26T10:25:15.132Z,58.00
2018-05-26T10:27:42.753Z,58.70
2018-05-26T10:30:10.436Z,57.00
2018-05-26T10:32:38.823Z,56.40
2018-05-26T10:35:07.174Z,56.10
2018-05-26T10:37:34.805Z,56.10
2018-05-26T10:40:02.388Z,55.10
2018-05-26T10:42:30.012Z,55.90
2018-05-26T10:44:57.873Z,55.00
2018-05-26T10:47:25.460Z,54.70
2018-05-26T10:49:53.883Z,55.40
2018-05-26T10:52:22.284Z,55.50
2018-05-26T10:54:50.026Z,55.50
2018-05-26T10:57:18.425Z,56.10
2018-05-26T10:59:46.057Z,56.10
2018-05-26T11:02:13.686Z,55.20
2018-05-26T11:04:41.330Z,54.60
2018-05-26T11:07:08.928Z,53.40
2018-05-26T11:09:36.579Z,53.40
2018-05-26T11:12:04.192Z,56.30
2018-05-26T11:14:31.840Z,54.80
2018-05-26T11:17:00.193Z,53.20
2018-05-26T11:19:27.825Z,53.20
2018-05-26T11:21:55.465Z,52.40
2018-05-26T11:24:23.072Z,52.10
2018-05-26T11:26:50.709Z,50.90
2018-05-26T11:29:18.296Z,51.60
2018-05-26T11:31:51.932Z,52.00
2018-05-26T11:34:19.525Z,52.20
2018-05-26T11:36:47.146Z,51.10
2018-05-26T11:39:14.776Z,50.80
2018-05-26T11:41:42.368Z,49.70
2018-05-26T11:44:10.748Z,49.60
2018-05-26T11:46:39.188Z,48.30
2018-05-26T11:49:06.785Z,48.30
2018-05-26T11:51:35.188Z,47.60
2018-05-26T11:54:02.818Z,47.60
2018-05-26T11:56:31.220Z,47.30
2018-05-26T11:58:58.809Z,47.30
2018-05-26T12:01:26.433Z,47.30
2018-05-26T12:03:54.044Z,46.80
2018-05-26T12:06:21.661Z,46.40
2018-05-26T12:08:49.289Z,47.70
2018-05-26T12:11:16.884Z,46.50
2018-05-26T12:13:44.509Z,45.90
2018-05-26T12:16:12.133Z,46.10
2018-05-26T12:18:39.720Z,44.10
2018-05-26T12:21:07.353Z,45.10
2018-05-26T12:23:34.936Z,44.60
2018-05-26T12:26:02.576Z,44.60
2018-05-26T12:28:30.175Z,43.70
2018-05-26T12:30:58.590Z,44.60
2018-05-26T12:33:26.197Z,44.60
2018-05-26T12:35:53.824Z,44.10
2018-05-26T12:38:21.452Z,43.40
2018-05-26T12:40:49.860Z,42.70
2018-05-26T12:43:17.492Z,42.70
2018-05-26T12:45:45.958Z,43.10
2018-05-26T12:48:13.652Z,43.00
2018-05-26T12:50:41.252Z,43.50
2018-05-26T12:53:09.726Z,42.90
2018-05-26T12:55:37.309Z,42.80
2018-05-26T12:58:04.898Z,42.90
2018-05-26T13:00:33.305Z,41.90
2018-05-26T13:03:00.933Z,41.80
2018-05-26T13:05:29.389Z,42.50
2018-05-26T13:07:57.026Z,42.60
2018-05-26T13:10:24.668Z,42.20
2018-05-26T13:12:52.333Z,42.30
2018-05-26T13:15:19.928Z,43.40
2018-05-26T13:17:47.559Z,42.80
2018-05-26T13:20:15.144Z,42.80
2018-05-26T13:22:42.769Z,42.10
2018-05-26T13:25:10.368Z,43.30
2018-05-26T13:27:37.995Z,43.30
2018-05-26T13:30:05.673Z,43.20
2018-05-26T13:32:33.300Z,42.40
2018-05-26T13:35:01.656Z,41.70
2018-05-26T13:37:29.309Z,41.70
2018-05-26T13:39:56.959Z,42.20
2018-05-26T13:42:24.597Z,42.50
2018-05-26T13:44:52.184Z,41.70
2018-05-26T13:47:19.813Z,41.90
2018-05-26T13:49:47.400Z,41.80
2018-05-26T13:52:15.013Z,40.20
2018-05-26T13:54:42.644Z,41.10
2018-05-26T13:57:10.244Z,40.70
2018-05-26T13:59:37.877Z,41.60
2018-05-26T14:02:06.256Z,39.30
2018-05-26T14:04:34.668Z,39.70
2018-05-26T14:07:02.253Z,39.70
2018-05-26T14:09:29.884Z,39.20
2018-05-26T14:11:57.469Z,39.30
2018-05-26T14:14:25.126Z,38.90
2018-05-26T14:16:52.707Z,37.60
2018-05-26T14:19:20.336Z,37.70
2018-05-26T14:21:47.956Z,37.00
2018-05-26T14:24:16.304Z,38.10
2018-05-26T14:26:43.928Z,38.10
2018-05-26T14:29:11.514Z,37.60
2018-05-26T14:31:39.140Z,37.40
2018-05-26T14:34:06.832Z,37.10
2018-05-26T14:36:34.416Z,37.20
2018-05-26T14:39:02.046Z,36.10
2018-05-26T14:41:29.657Z,35.90
2018-05-26T14:43:58.070Z,37.70
2018-05-26T14:46:25.697Z,37.70
2018-05-26T14:48:54.056Z,35.90
2018-05-26T14:51:21.758Z,35.80
2018-05-26T14:53:49.376Z,36.30
2018-05-26T14:56:16.965Z,36.10
2018-05-26T14:58:45.377Z,36.80
2018-05-26T15:01:12.976Z,36.80
2018-05-26T15:03:40.568Z,37.00
2018-05-26T15:06:08.962Z,37.70
2018-05-26T15:08:36.548Z,37.80
2018-05-26T15:11:04.182Z,37.60
2018-05-26T15:13:31.819Z,38.00
2018-05-26T15:16:00.176Z,37.50
2018-05-26T15:18:27.810Z,37.50
2018-05-26T15:20:55.460Z,36.90
2018-05-26T15:23:23.111Z,36.80
2018-05-26T15:25:50.733Z,37.40
2018-05-26T15:28:18.360Z,37.40
2018-05-26T15:30:46.001Z,37.20
2018-05-26T15:33:13.600Z,37.80
2018-05-26T15:35:41.191Z,36.90
2018-05-26T15:38:09.597Z,36.90
2018-05-26T15:40:37.189Z,36.90
2018-05-26T15:43:04.845Z,37.40
2018-05-26T15:45:32.453Z,37.30
2018-05-26T15:48:00.807Z,38.70
2018-05-26T15:50:28.488Z,38.70
2018-05-26T15:52:56.845Z,38.20
2018-05-26T15:55:24.433Z,38.10
2018-05-26T15:57:52.829Z,38.00
2018-05-26T16:00:20.421Z,38.00
2018-05-26T16:02:48.075Z,37.80
2018-05-26T16:05:15.701Z,38.00
2018-05-26T16:07:43.303Z,38.70
2018-05-26T16:10:10.929Z,38.50
2018-05-26T16:12:38.515Z,40.00
2018-05-26T16:15:06.148Z,39.90
2018-05-26T16:17:33.740Z,39.40
2018-05-26T16:20:01.365Z,39.40
2018-05-26T16:22:29.781Z,39.80
2018-05-26T16:24:57.404Z,39.80
2018-05-26T16:27:25.796Z,39.80
2018-05-26T16:29:53.381Z,39.80
2018-05-26T16:32:21.001Z,40.10
2018-05-26T16:34:49.396Z,40.00
2018-05-26T16:37:16.985Z,40.00
2018-05-26T16:39:44.612Z,40.00
2018-05-26T16:42:12.260Z,40.20
2018-05-26T16:44:40.614Z,40.90
2018-05-26T16:47:08.249Z,40.90
2018-05-26T16:49:35.876Z,41.20
2018-05-26T16:52:03.504Z,40.70
2018-05-26T16:54:31.093Z,40.90
2018-05-26T16:56:58.728Z,40.40
2018-05-26T16:59:27.136Z,40.40
2018-05-26T17:01:54.727Z,40.40
2018-05-26T17:04:22.352Z,39.80
2018-05-26T17:06:50.881Z,40.20
2018-05-26T17:09:18.519Z,39.50
2018-05-26T17:11:46.144Z,39.40
2018-05-26T17:14:14.537Z,40.50
2018-05-26T17:16:42.168Z,41.20
2018-05-26T17:19:09.761Z,41.50
2018-05-26T17:21:37.390Z,41.20
2018-05-26T17:24:05.168Z,41.50
2018-05-26T17:26:33.576Z,41.80
2018-05-26T17:29:01.163Z,41.80
2018-05-26T17:31:28.792Z,42.00
2018-05-26T17:33:56.416Z,43.00
2018-05-26T17:36:24.042Z,43.60
2018-05-26T17:38:51.667Z,44.10
2018-05-26T17:41:19.261Z,43.80
2018-05-26T17:43:46.921Z,44.30
2018-05-26T17:46:14.562Z,45.30
2018-05-26T17:48:42.168Z,45.70
2018-05-26T17:51:09.805Z,46.20
2018-05-26T17:53:37.393Z,46.40
2018-05-26T17:56:05.029Z,46.70
2018-05-26T17:58:32.669Z,47.10
2018-05-26T18:01:00.256Z,47.70
2018-05-26T18:03:27.888Z,48.20
2018-05-26T18:05:55.529Z,49.10
2018-05-26T18:08:23.910Z,50.00
2018-05-26T18:10:51.505Z,50.00
2018-05-26T18:13:19.132Z,50.20
2018-05-26T18:15:47.485Z,51.20
2018-05-26T18:18:15.120Z,51.30
2018-05-26T18:20:42.716Z,51.90
2018-05-26T18:23:10.313Z,52.40
2018-05-26T18:25:37.937Z,53.00
2018-05-26T18:28:06.336Z,52.90
2018-05-26T18:30:35.529Z,53.30
2018-05-26T18:33:04.000Z,53.90
2018-05-26T18:35:32.403Z,54.40
2018-05-26T18:38:00.028Z,54.40
2018-05-26T18:40:27.953Z,54.90
2018-05-26T18:42:55.605Z,55.70
2018-05-26T18:45:23.297Z,55.90
2018-05-26T18:47:50.909Z,56.70
2018-05-26T18:50:19.329Z,57.60
2018-05-26T18:52:46.916Z,57.60
2018-05-26T18:55:14.545Z,58.00
2018-05-26T18:57:42.129Z,58.10
2018-05-26T19:00:09.767Z,58.50
2018-05-26T19:02:37.427Z,59.70
2018-05-26T19:05:05.804Z,60.20
2018-05-26T19:07:33.439Z,60.70
2018-05-26T19:10:02.257Z,61.10
2018-05-26T19:12:29.941Z,61.40
2018-05-26T19:14:57.529Z,61.80
2018-05-26T19:17:25.930Z,62.30
2018-05-26T19:19:53.569Z,62.20
2018-05-26T19:22:21.929Z,63.50
2018-05-26T19:24:49.556Z,63.50
2018-05-26T19:27:17.935Z,63.60
2018-05-26T19:29:45.669Z,62.70
2018-05-26T19:32:13.331Z,62.40
2018-05-26T19:34:41.009Z,62.70
2018-05-26T19:37:08.658Z,62.80
2018-05-26T19:39:36.269Z,63.40
2018-05-26T19:42:03.884Z,64.40
2018-05-26T19:44:31.537Z,65.00
2018-05-26T19:46:59.122Z,65.80
2018-05-26T19:49:27.400Z,66.60
2018-05-26T19:51:55.170Z,67.20
2018-05-26T19:54:23.828Z,67.80
2018-05-26T19:56:51.425Z,67.60
2018-05-26T19:59:19.280Z,67.20
2018-05-26T20:01:47.546Z,67.20
2018-05-26T20:04:15.965Z,67.30
2018-05-26T20:06:43.562Z,67.10
2018-05-26T20:09:11.207Z,67.50
2018-05-26T20:11:39.613Z,68.40
2018-05-26T20:14:07.216Z,68.30
2018-05-26T20:16:34.859Z,68.30
2018-05-26T20:19:02.451Z,69.30
2018-05-26T20:21:30.121Z,69.20
2018-05-26T20:23:57.754Z,69.80
2018-05-26T20:26:25.346Z,70.20
2018-05-26T20:28:52.971Z,70.00
2018-05-26T20:31:20.565Z,69.70
2018-05-26T20:33:48.978Z,70.00
2018-05-26T20:36:16.561Z,69.80
2018-05-26T20:38:44.192Z,70.00
2018-05-26T20:41:11.813Z,70.20
2018-05-26T20:43:39.488Z,70.50
2018-05-26T20:46:07.132Z,70.70
2018-05-26T20:48:34.733Z,70.80
2018-05-26T20:51:03.346Z,70.70
2018-05-26T20:53:31.038Z,70.70
2018-05-26T20:55:58.633Z,71.00
2018-05-26T20:58:27.041Z,72.20
2018-05-26T21:00:55.465Z,72.30
2018-05-26T21:03:23.117Z,72.40
2018-05-26T21:05:50.757Z,72.60
2018-05-26T21:08:18.364Z,72.80
2018-05-26T21:10:46.768Z,73.10
2018-05-26T21:13:14.398Z,73.00
2018-05-26T21:15:42.050Z,73.30
2018-05-26T21:18:09.647Z,73.80
2018-05-26T21:20:37.287Z,74.00
2018-05-26T21:23:05.648Z,74.90
2018-05-26T21:25:34.063Z,74.00
2018-05-26T21:28:01.655Z,74.10
2018-05-26T21:30:29.329Z,73.00
2018-05-26T21:32:57.050Z,73.60
2018-05-26T21:35:24.680Z,74.50
2018-05-26T21:37:52.338Z,74.30
2018-05-26T21:40:19.974Z,74.50
2018-05-26T21:42:47.561Z,73.70
2018-05-26T21:45:15.198Z,74.60
2018-05-26T21:47:42.796Z,74.50
2018-05-26T21:50:11.213Z,75.30
2018-05-26T21:52:38.845Z,75.30
2018-05-26T21:55:07.205Z,75.70
2018-05-26T21:57:34.852Z,75.70
2018-05-26T22:00:02.505Z,75.90
2018-05-26T22:02:30.140Z,75.90
2018-05-26T22:04:57.773Z,76.00
2018-05-26T22:07:26.197Z,76.20
2018-05-26T22:09:53.825Z,76.20
2018-05-26T22:12:22.573Z,76.50
2018-05-26T22:14:50.513Z,75.90
2018-05-26T22:17:18.104Z,77.10
2018-05-26T22:19:45.744Z,76.80
2018-05-26T22:22:13.368Z,76.80
2018-05-26T22:24:40.989Z,77.80
2018-05-26T22:27:08.612Z,78.90
2018-05-26T22:29:36.200Z,79.20
2018-05-26T22:32:03.830Z,79.10
2018-05-26T22:34:31.524Z,78.60
2018-05-26T22:36:59.114Z,79.00
2018-05-26T22:39:27.516Z,77.70
2018-05-26T22:41:55.141Z,77.60
2018-05-26T22:44:22.764Z,77.60
2018-05-26T22:46:50.413Z,77.30
2018-05-26T22:49:18.015Z,77.00
2018-05-26T22:51:45.653Z,77.30
2018-05-26T22:54:13.255Z,76.70
2018-05-26T22:56:41.645Z,76.90
2018-05-26T22:59:09.268Z,76.80
2018-05-26T23:01:36.860Z,76.80
2018-05-26T23:04:05.240Z,76.80
2018-05-26T23:06:33.588Z,77.10
2018-05-26T23:09:01.231Z,78.00
2018-05-26T23:11:29.360Z,77.20
2018-05-26T23:13:56.960Z,77.10
2018-05-26T23:16:28.106Z,77.50
2018-05-26T23:18:55.924Z,77.30
2018-05-26T23:21:24.328Z,77.50
2018-05-26T23:23:53.682Z,78.30
2018-05-26T23:26:21.317Z,78.30
2018-05-26T23:28:48.900Z,78.40
2018-05-26T23:31:16.488Z,78.30
2018-05-26T23:33:44.884Z,78.90
2018-05-26T23:36:12.469Z,78.90
2018-05-26T23:38:40.106Z,78.20
2018-05-26T23:41:07.693Z,77.70
2018-05-26T23:43:35.280Z,77.80
2018-05-26T23:46:02.904Z,78.40
2018-05-26T23:48:30.583Z,77.40
2018-05-26T23:50:58.148Z,77.80
2018-05-26T23:53:25.785Z,78.80
2018-05-26T23:55:53.448Z,78.60
2018-05-26T23:58:21.105Z,78.50
